Terminal Aerodrome Forecast
Issued by NWS

Home | Current Version | Previous Version | Text Only | Print | Product List | Glossary On
Versions: 1 2 3 4 5 6 7 8 9 10 11 12 13
000
FTUS45 KTFX 232300
TAFLWT
TAF
KLWT 232338Z 2400/2424 VRB06KT P6SM BKN180
     FM240200 VRB06KT P6SM VCTS SCT070CB BKN180
     FM240900 VRB06KT P6SM BKN180
     FM241800 30015G28KT P6SM SKC=

USA.gov is the U.S. government's official web portal to all federal, state and local government web resources and services.